Time;durP1;ratioP1;P1;durP2;ratioP2;P2;SDS_P1;SDS_P2;PMS_P1;PMS_P2;Temp;Humidity;BMP_temperature;BMP_pressure;BME280_temperature;BME280_humidity;BME280_pressure;Samples;Min_cycle;Max_cycle;Signal;HPM_P1;HPM_P2
2023/10/18 00:01:27;;;;;;;26.37;12.33;;;3.60;99.90;;;;;;5132250;27;20629;-78
2023/10/18 00:03:54;;;;;;;22.67;13.43;;;3.60;99.90;;;;;;5132597;27;20634;-77
2023/10/18 00:06:23;;;;;;;23.00;10.87;;;3.50;99.90;;;;;;5138290;27;20607;-77
2023/10/18 00:08:57;;;;;;;20.20;11.60;;;3.40;99.90;;;;;;5130848;27;20220;-76
2023/10/18 00:11:25;;;;;;;19.97;12.37;;;3.50;99.90;;;;;;5137052;27;20195;-77
2023/10/18 00:13:53;;;;;;;18.27;12.47;;;3.50;99.90;;;;;;5126220;27;21838;-76
2023/10/18 00:16:21;;;;;;;18.07;10.97;;;3.60;99.90;;;;;;5128675;27;20304;-76
2023/10/18 00:18:48;;;;;;;22.43;12.43;;;3.60;99.90;;;;;;5129917;27;20686;-77
2023/10/18 00:21:15;;;;;;;25.67;11.90;;;3.60;99.90;;;;;;5137343;27;20200;-77
2023/10/18 00:23:44;;;;;;;21.17;11.13;;;3.30;99.90;;;;;;5135433;27;20231;-78
2023/10/18 00:26:12;;;;;;;22.00;11.77;;;3.40;99.90;;;;;;5132881;27;20549;-76
2023/10/18 00:28:40;;;;;;;19.67;11.33;;;3.40;99.90;;;;;;5132890;27;20216;-77
2023/10/18 00:31:16;;;;;;;19.70;12.30;;;3.30;99.90;;;;;;5133103;27;20287;-77
2023/10/18 00:33:44;;;;;;;32.97;13.73;;;3.40;99.90;;;;;;5137213;27;20654;-77
2023/10/18 00:36:11;;;;;;;20.47;11.97;;;3.20;99.90;;;;;;5133913;27;20212;-78
2023/10/18 00:38:39;;;;;;;18.53;11.07;;;3.20;99.90;;;;;;5137204;27;20224;-77
2023/10/18 00:41:09;;;;;;;20.27;10.77;;;3.10;99.90;;;;;;5128932;27;20208;-77
2023/10/18 00:43:38;;;;;;;28.83;11.03;;;3.00;99.90;;;;;;5134238;27;20208;-77
2023/10/18 00:46:07;;;;;;;15.67;9.57;;;2.90;99.90;;;;;;5137820;27;20229;-77
2023/10/18 00:48:35;;;;;;;15.30;9.97;;;3.00;99.90;;;;;;5137487;27;20205;-78
2023/10/18 00:51:03;;;;;;;23.17;12.13;;;3.00;99.90;;;;;;5137682;27;20655;-77
2023/10/18 00:53:31;;;;;;;19.57;12.33;;;3.00;99.90;;;;;;5137800;27;20239;-77
2023/10/18 00:56:00;;;;;;;28.00;13.83;;;3.00;99.90;;;;;;5137951;27;20200;-77
2023/10/18 00:58:28;;;;;;;24.23;14.17;;;3.10;99.90;;;;;;5128302;27;20215;-77
2023/10/18 01:00:58;;;;;;;20.33;11.87;;;3.00;99.90;;;;;;5123140;27;20242;-77
2023/10/18 01:03:32;;;;;;;30.67;12.63;;;3.10;99.90;;;;;;5136173;27;20188;-77
2023/10/18 01:06:00;;;;;;;26.73;10.73;;;3.20;99.90;;;;;;5136338;27;20227;-78
2023/10/18 01:08:29;;;;;;;24.97;13.27;;;3.10;99.90;;;;;;5136626;27;20196;-77
2023/10/18 01:11:01;;;;;;;33.20;11.87;;;3.00;99.90;;;;;;5136709;27;20225;-77
2023/10/18 01:13:28;;;;;;;26.80;12.73;;;2.90;99.90;;;;;;5128588;27;20208;-76
2023/10/18 01:15:57;;;;;;;26.67;12.33;;;2.80;99.90;;;;;;5132249;27;20665;-77
2023/10/18 01:18:24;;;;;;;22.67;11.03;;;2.80;99.90;;;;;;5135929;27;20221;-78
2023/10/18 01:20:52;;;;;;;28.20;10.67;;;2.90;99.90;;;;;;5133281;27;20204;-78
2023/10/18 01:23:19;;;;;;;21.67;11.57;;;2.80;99.90;;;;;;5129222;27;20574;-77
2023/10/18 01:25:48;;;;;;;31.23;10.37;;;2.70;99.90;;;;;;5130475;27;20207;-77
2023/10/18 01:28:14;;;;;;;39.30;12.53;;;2.70;99.90;;;;;;5128589;27;20673;-77
2023/10/18 01:30:41;;;;;;;28.53;12.00;;;2.50;99.90;;;;;;5131026;27;20217;-77
2023/10/18 01:33:10;;;;;;;31.00;12.00;;;2.50;99.90;;;;;;5131011;27;20287;-78
2023/10/18 01:35:46;;;;;;;23.33;11.43;;;2.60;99.90;;;;;;5130291;27;20258;-77
2023/10/18 01:38:13;;;;;;;30.63;10.90;;;2.60;99.90;;;;;;5134165;27;20227;-77
2023/10/18 01:40:53;;;;;;;23.23;9.20;;;2.60;99.90;;;;;;5128707;27;20284;-77
2023/10/18 01:43:20;;;;;;;24.40;11.43;;;2.70;99.90;;;;;;5130821;27;20200;-77
2023/10/18 01:45:49;;;;;;;24.23;12.63;;;2.90;99.90;;;;;;5131509;27;20691;-77
2023/10/18 01:48:18;;;;;;;21.13;11.97;;;2.90;99.90;;;;;;5129276;27;20192;-77
2023/10/18 01:50:46;;;;;;;28.67;10.50;;;2.70;99.90;;;;;;5132337;27;20451;-77
2023/10/18 01:53:16;;;;;;;21.23;11.33;;;2.70;99.90;;;;;;5131896;27;20638;-77
2023/10/18 01:55:51;;;;;;;21.17;11.87;;;2.70;99.90;;;;;;5134394;27;20204;-77
2023/10/18 01:58:19;;;;;;;21.23;12.23;;;2.90;99.90;;;;;;5126772;27;20599;-78
2023/10/18 02:00:47;;;;;;;20.67;12.30;;;2.80;99.90;;;;;;5134739;27;20188;-76
2023/10/18 02:03:14;;;;;;;27.60;10.77;;;2.70;99.90;;;;;;5135810;27;20252;-76
2023/10/18 02:05:43;;;;;;;45.03;10.70;;;2.70;99.90;;;;;;5133879;27;20692;-78
2023/10/18 02:08:11;;;;;;;25.53;11.47;;;2.70;99.90;;;;;;5131288;27;20200;-78
2023/10/18 02:10:40;;;;;;;31.87;11.50;;;2.80;99.90;;;;;;5130574;27;20763;-77
2023/10/18 02:13:08;;;;;;;36.07;12.37;;;2.80;99.90;;;;;;5131099;27;20201;-77
2023/10/18 02:15:39;;;;;;;37.80;11.17;;;2.90;99.90;;;;;;5132612;27;20196;-76
2023/10/18 02:18:06;;;;;;;54.80;11.87;;;2.70;99.90;;;;;;5124851;27;20744;-78
2023/10/18 02:20:35;;;;;;;65.73;12.77;;;2.60;99.90;;;;;;5124294;27;20688;-76
2023/10/18 02:23:10;;;;;;;22.77;11.37;;;2.80;99.90;;;;;;5128317;27;20196;-77
2023/10/18 02:25:39;;;;;;;23.37;11.30;;;2.70;99.90;;;;;;5123686;27;20235;-77
2023/10/18 02:28:09;;;;;;;36.60;12.30;;;2.80;99.90;;;;;;5123351;27;20553;-78
2023/10/18 02:30:39;;;;;;;19.47;12.20;;;2.80;99.90;;;;;;5133751;27;20220;-77
2023/10/18 02:33:06;;;;;;;30.13;12.43;;;2.90;99.90;;;;;;5135483;27;20721;-77
2023/10/18 02:35:34;;;;;;;30.47;13.53;;;2.90;99.90;;;;;;5134731;27;20666;-76
2023/10/18 02:38:08;;;;;;;48.83;13.97;;;2.80;99.90;;;;;;5129345;27;20216;-77
2023/10/18 02:40:38;;;;;;;55.20;14.20;;;2.70;99.90;;;;;;5134663;27;20231;-77
2023/10/18 02:43:11;;;;;;;48.00;11.93;;;2.80;99.90;;;;;;5135021;27;20192;-77
2023/10/18 02:45:40;;;;;;;37.97;10.40;;;2.70;99.90;;;;;;5135086;27;20310;-78
2023/10/18 02:48:13;;;;;;;44.97;10.80;;;2.70;99.90;;;;;;5135719;27;20651;-77
2023/10/18 02:50:41;;;;;;;68.10;12.30;;;2.80;99.90;;;;;;5125974;28;20235;-77
2023/10/18 02:53:08;;;;;;;79.37;16.13;;;2.80;99.90;;;;;;5135152;27;20816;-77
2023/10/18 02:55:38;;;;;;;25.73;11.33;;;2.80;99.90;;;;;;5134589;28;20195;-77
2023/10/18 02:58:08;;;;;;;21.60;10.27;;;2.80;99.90;;;;;;5134246;28;20304;-78
2023/10/18 03:00:41;;;;;;;24.43;10.83;;;2.80;99.90;;;;;;5133975;28;20220;-77
2023/10/18 03:03:09;;;;;;;25.47;10.07;;;2.70;99.90;;;;;;5136113;28;20201;-77
2023/10/18 03:05:41;;;;;;;20.93;10.83;;;2.80;99.90;;;;;;5131724;28;20788;-77
2023/10/18 03:08:10;;;;;;;44.47;11.80;;;2.80;99.90;;;;;;5136247;27;20200;-78
2023/10/18 03:10:43;;;;;;;18.97;10.23;;;2.50;99.90;;;;;;5137275;27;20216;-82
2023/10/18 03:13:13;;;;;;;27.00;11.50;;;2.50;99.90;;;;;;5130747;27;20573;-76
2023/10/18 03:15:53;;;;;;;21.93;11.63;;;2.50;99.90;;;;;;5133392;27;20197;-78
2023/10/18 03:18:25;;;;;;;25.87;12.20;;;2.60;99.90;;;;;;5134377;27;20220;-77
2023/10/18 03:20:56;;;;;;;38.27;12.30;;;2.70;99.90;;;;;;5132502;27;20635;-78
2023/10/18 03:23:26;;;;;;;22.33;11.43;;;2.50;99.90;;;;;;5127566;27;20712;-78
2023/10/18 03:25:59;;;;;;;38.97;13.80;;;2.50;99.90;;;;;;5131459;27;20204;-78
2023/10/18 03:28:33;;;;;;;46.23;12.37;;;2.60;99.90;;;;;;5139709;27;20228;-78
2023/10/18 03:31:05;;;;;;;59.33;16.07;;;2.60;99.90;;;;;;5132933;27;20679;-78
2023/10/18 03:33:34;;;;;;;27.33;13.90;;;2.70;99.90;;;;;;5139776;27;20688;-79
2023/10/18 03:36:17;;;;;;;39.53;18.13;;;2.80;99.90;;;;;;5139524;27;20196;-76
2023/10/18 03:38:51;;;;;;;29.90;16.80;;;2.80;99.90;;;;;;5136339;27;20224;-78
2023/10/18 03:41:19;;;;;;;51.47;14.80;;;2.90;99.90;;;;;;5137596;27;20196;-77
2023/10/18 03:43:48;;;;;;;50.57;13.83;;;2.90;99.90;;;;;;5139536;27;20303;-78
2023/10/18 03:46:19;;;;;;;41.00;11.80;;;2.90;99.90;;;;;;5139281;27;20245;-78
2023/10/18 03:48:54;;;;;;;43.10;13.07;;;2.80;99.90;;;;;;5139426;27;20228;-76
2023/10/18 03:51:23;;;;;;;35.40;14.23;;;2.70;99.90;;;;;;5138690;27;20212;-78
2023/10/18 03:53:52;;;;;;;34.17;12.50;;;2.90;99.90;;;;;;5131080;27;20200;-77
2023/10/18 03:56:21;;;;;;;28.10;12.50;;;2.70;99.90;;;;;;5139615;27;20196;-77
2023/10/18 03:59:00;;;;;;;26.20;12.10;;;2.80;99.90;;;;;;5131056;27;20224;-78
2023/10/18 04:01:28;;;;;;;25.07;11.63;;;2.90;99.90;;;;;;5139745;27;20200;-78
2023/10/18 04:03:56;;;;;;;23.67;11.23;;;2.90;99.90;;;;;;5134993;27;20201;-78
2023/10/18 04:06:28;;;;;;;43.63;13.40;;;2.80;99.90;;;;;;5130721;27;20204;-78
2023/10/18 04:08:58;;;;;;;44.10;12.03;;;2.70;99.90;;;;;;5139932;27;20584;-78
2023/10/18 04:11:26;;;;;;;23.23;13.27;;;2.70;99.90;;;;;;5139145;27;20204;-78
2023/10/18 04:13:53;;;;;;;21.40;15.10;;;2.70;99.90;;;;;;5140320;27;20572;-78
2023/10/18 04:16:28;;;;;;;32.43;14.03;;;2.80;99.90;;;;;;5130814;27;20208;-77
2023/10/18 04:18:57;;;;;;;30.10;11.37;;;2.90;99.90;;;;;;5131284;27;20724;-77
2023/10/18 04:21:26;;;;;;;30.40;12.83;;;2.90;99.90;;;;;;5137070;27;20750;-75
2023/10/18 04:23:56;;;;;;;57.87;14.00;;;2.80;99.90;;;;;;5127710;27;20211;-77
2023/10/18 04:26:25;;;;;;;42.23;11.87;;;2.60;99.90;;;;;;5133640;27;20662;-76
2023/10/18 04:28:57;;;;;;;25.67;11.90;;;2.80;99.90;;;;;;5131180;27;20217;-78
2023/10/18 04:31:25;;;;;;;28.03;11.97;;;2.80;99.90;;;;;;5126473;27;20201;-76
2023/10/18 04:33:54;;;;;;;35.57;13.50;;;2.80;99.90;;;;;;5129880;27;20201;-76
2023/10/18 04:36:23;;;;;;;37.00;15.57;;;2.80;99.90;;;;;;5131528;27;20204;-76
2023/10/18 04:38:51;;;;;;;37.07;16.67;;;2.90;99.90;;;;;;5130678;27;20226;-77
2023/10/18 04:41:28;;;;;;;27.00;14.17;;;2.90;99.90;;;;;;5132428;27;20215;-77
2023/10/18 04:44:06;;;;;;;19.07;9.93;;;2.90;99.90;;;;;;5134925;27;20204;-77
2023/10/18 04:46:35;;;;;;;47.10;10.00;;;2.90;99.90;;;;;;5133077;27;20207;-77
2023/10/18 04:49:23;;;;;;;17.30;9.50;;;2.70;99.90;;;;;;5132149;27;20224;-78
2023/10/18 04:51:54;;;;;;;18.30;9.63;;;2.70;99.90;;;;;;5130704;27;20216;-78
2023/10/18 04:54:35;;;;;;;27.73;10.87;;;2.60;99.90;;;;;;5132364;27;20205;-77
2023/10/18 04:57:04;;;;;;;25.43;10.60;;;2.40;99.90;;;;;;5123459;27;20197;-77
2023/10/18 04:59:44;;;;;;;24.03;9.43;;;2.50;99.90;;;;;;5131188;27;20483;-77
2023/10/18 05:02:16;;;;;;;22.00;10.30;;;2.40;99.90;;;;;;5125463;27;20207;-76
2023/10/18 05:04:44;;;;;;;28.43;11.10;;;2.50;99.90;;;;;;5127241;27;20204;-77
2023/10/18 05:07:14;;;;;;;21.70;11.97;;;2.50;99.90;;;;;;5127730;27;20192;-78
2023/10/18 05:09:43;;;;;;;22.17;9.67;;;2.60;99.90;;;;;;5130738;27;20228;-77
2023/10/18 05:12:27;;;;;;;29.93;11.93;;;2.50;99.90;;;;;;5126197;27;20193;-77
2023/10/18 05:15:06;;;;;;;26.67;11.50;;;2.50;99.90;;;;;;5124030;27;20602;-76
2023/10/18 05:17:38;;;;;;;23.73;10.33;;;2.50;99.90;;;;;;5127229;27;20246;-77
2023/10/18 05:20:21;;;;;;;26.40;11.27;;;2.50;99.90;;;;;;5129744;27;20224;-76
2023/10/18 05:22:52;;;;;;;29.20;10.77;;;2.40;99.90;;;;;;5132333;27;20684;-77
2023/10/18 05:25:29;;;;;;;26.53;12.20;;;2.30;99.90;;;;;;5131987;27;20260;-77
2023/10/18 05:28:13;;;;;;;27.27;12.87;;;2.30;99.90;;;;;;5130182;27;20719;-78
2023/10/18 05:36:29;;;;;;;40.63;14.67;;;1.80;99.90;;;;;;5127385;27;20238;-77
2023/10/18 05:39:06;;;;;;;33.67;11.97;;;1.90;99.90;;;;;;5121055;27;20235;-78
2023/10/18 05:41:45;;;;;;;57.27;14.43;;;1.80;99.90;;;;;;5133061;27;20208;-76
2023/10/18 05:44:13;;;;;;;49.83;15.00;;;1.70;99.90;;;;;;5125864;27;20199;-78
2023/10/18 05:46:41;;;;;;;39.03;14.20;;;1.70;99.90;;;;;;5129790;27;20204;-78
2023/10/18 05:49:15;;;;;;;42.13;14.83;;;1.90;99.90;;;;;;5136591;27;20580;-80
2023/10/18 05:51:52;;;;;;;36.73;14.07;;;2.00;99.90;;;;;;5133740;27;20212;-79
2023/10/18 05:54:21;;;;;;;40.40;14.23;;;2.00;99.90;;;;;;5133868;27;20200;-79
2023/10/18 05:56:51;;;;;;;27.33;11.53;;;1.90;99.90;;;;;;5129851;27;20669;-79
2023/10/18 05:59:31;;;;;;;28.47;12.37;;;1.80;99.90;;;;;;5124810;27;20607;-78
2023/10/18 06:01:58;;;;;;;45.03;14.53;;;1.80;99.90;;;;;;5118879;27;20197;-79
2023/10/18 06:04:26;;;;;;;29.73;12.30;;;1.70;99.90;;;;;;5130566;27;20190;-79
2023/10/18 06:06:57;;;;;;;39.40;14.40;;;1.80;99.90;;;;;;5129632;27;20196;-78
2023/10/18 06:09:32;;;;;;;49.83;13.80;;;1.80;99.90;;;;;;5122277;27;20217;-79
2023/10/18 06:12:01;;;;;;;28.70;12.57;;;1.70;99.90;;;;;;5131167;27;20580;-80
2023/10/18 06:14:33;;;;;;;46.20;13.03;;;1.70;99.90;;;;;;5133249;27;20207;-79
2023/10/18 06:17:12;;;;;;;29.60;13.03;;;1.70;99.90;;;;;;5123753;27;20197;-80
2023/10/18 06:19:39;;;;;;;31.57;13.17;;;1.80;99.90;;;;;;5132187;27;20228;-79
2023/10/18 06:22:28;;;;;;;36.60;12.97;;;1.80;99.90;;;;;;5120226;27;20735;-79
2023/10/18 06:25:00;;;;;;;28.83;13.03;;;1.80;99.90;;;;;;5128278;27;20230;-79
2023/10/18 06:27:27;;;;;;;61.47;14.07;;;1.60;99.90;;;;;;5134185;27;20204;-78
2023/10/18 06:29:54;;;;;;;46.77;13.83;;;1.80;99.90;;;;;;5131350;27;20212;-80
2023/10/18 06:32:24;;;;;;;81.10;14.47;;;1.90;99.90;;;;;;5129034;27;20205;-80
2023/10/18 06:34:57;;;;;;;53.90;13.43;;;1.80;99.90;;;;;;5134593;27;20218;-79
2023/10/18 06:37:31;;;;;;;31.07;11.40;;;1.90;99.90;;;;;;5128887;27;20208;-78
2023/10/18 06:40:00;;;;;;;40.50;11.13;;;1.90;99.90;;;;;;5131635;27;20303;-80
2023/10/18 06:42:27;;;;;;;28.07;12.73;;;1.90;99.90;;;;;;5131593;27;20205;-82
2023/10/18 06:44:55;;;;;;;41.50;13.77;;;1.80;99.90;;;;;;5132977;27;20208;-79
2023/10/18 06:47:30;;;;;;;35.50;13.03;;;1.80;99.90;;;;;;5128469;27;20284;-80
2023/10/18 06:49:59;;;;;;;71.27;17.03;;;1.90;99.90;;;;;;5124405;27;20266;-79
2023/10/18 06:52:30;;;;;;;32.07;14.00;;;1.90;99.90;;;;;;5120065;27;20641;-77
2023/10/18 06:55:00;;;;;;;21.43;10.63;;;2.10;99.90;;;;;;5128944;27;20222;-78
2023/10/18 06:57:35;;;;;;;31.30;12.20;;;2.10;99.90;;;;;;5128844;27;20257;-79
2023/10/18 07:00:07;;;;;;;27.73;14.13;;;2.20;99.90;;;;;;5132462;28;20318;-78
2023/10/18 07:02:37;;;;;;;30.13;13.60;;;2.30;99.90;;;;;;5134726;28;20204;-80
2023/10/18 07:05:07;;;;;;;27.07;12.90;;;2.40;99.90;;;;;;5133667;28;20585;-79
2023/10/18 07:07:34;;;;;;;37.37;13.50;;;2.30;99.90;;;;;;5124107;28;20205;-79
2023/10/18 07:10:05;;;;;;;33.87;14.50;;;2.30;99.90;;;;;;5127931;28;20689;-79
2023/10/18 07:12:44;;;;;;;32.60;14.73;;;2.50;99.90;;;;;;5130362;28;20232;-79
2023/10/18 07:15:16;;;;;;;26.73;13.13;;;2.60;99.90;;;;;;5135348;28;20200;-79
2023/10/18 07:17:43;;;;;;;36.20;14.30;;;2.60;99.90;;;;;;5135788;28;20214;-78
2023/10/18 07:20:15;;;;;;;30.47;16.50;;;2.60;99.90;;;;;;5130504;28;20306;-78
2023/10/18 07:22:44;;;;;;;26.23;16.00;;;2.80;99.90;;;;;;5120377;28;20208;-79
2023/10/18 07:25:19;;;;;;;28.03;13.27;;;2.90;99.90;;;;;;5131504;28;20661;-79
2023/10/18 07:27:46;;;;;;;28.57;15.67;;;2.90;99.90;;;;;;5134797;28;21273;-79
2023/10/18 07:30:15;;;;;;;28.77;13.50;;;3.00;99.90;;;;;;5121500;28;20224;-78
2023/10/18 07:32:45;;;;;;;24.43;13.53;;;3.10;99.90;;;;;;5129825;28;20240;-80
2023/10/18 07:35:12;;;;;;;29.27;15.27;;;3.20;99.90;;;;;;5127892;28;20200;-79
2023/10/18 07:37:43;;;;;;;25.63;16.67;;;3.20;99.90;;;;;;5122371;28;20227;-79
2023/10/18 07:40:19;;;;;;;27.37;15.70;;;3.20;99.90;;;;;;5126834;28;20316;-79
2023/10/18 07:42:50;;;;;;;32.70;14.80;;;3.20;99.90;;;;;;5125008;28;20199;-79
2023/10/18 07:45:17;;;;;;;25.77;14.07;;;3.30;99.90;;;;;;5130172;28;20197;-79
2023/10/18 07:47:44;;;;;;;25.80;15.50;;;3.40;99.90;;;;;;5130986;28;20220;-79
2023/10/18 07:50:41;;;;;;;31.60;15.37;;;3.50;99.90;;;;;;5127578;28;20212;-80
2023/10/18 07:53:11;;;;;;;29.70;16.33;;;3.60;99.90;;;;;;5122844;28;20232;-79
2023/10/18 07:55:41;;;;;;;31.97;16.73;;;3.80;99.90;;;;;;5129197;27;20243;-79
2023/10/18 07:58:21;;;;;;;33.63;16.40;;;3.80;99.90;;;;;;5128841;27;20216;-78
2023/10/18 08:01:07;;;;;;;28.43;15.87;;;3.80;99.90;;;;;;5124472;27;20207;-78
2023/10/18 08:03:36;;;;;;;30.20;17.20;;;3.80;99.90;;;;;;5133063;27;20200;-79
2023/10/18 08:06:06;;;;;;;33.10;18.63;;;3.90;99.90;;;;;;5126270;27;20205;-80
2023/10/18 08:08:35;;;;;;;29.87;17.67;;;4.00;99.90;;;;;;5129230;27;20201;-78
2023/10/18 08:11:11;;;;;;;33.00;17.97;;;4.10;99.90;;;;;;5126288;27;20254;-79
2023/10/18 08:13:45;;;;;;;33.03;21.37;;;4.20;99.90;;;;;;5129168;27;20204;-80
2023/10/18 08:16:19;;;;;;;31.63;18.60;;;4.30;99.90;;;;;;5128692;27;20615;-79
2023/10/18 08:18:52;;;;;;;31.37;18.17;;;4.40;99.90;;;;;;5131198;27;20314;-79
2023/10/18 08:21:27;;;;;;;32.17;17.77;;;4.40;99.90;;;;;;5131492;27;20231;-79
2023/10/18 08:23:55;;;;;;;31.13;17.33;;;4.60;99.90;;;;;;5131556;27;20215;-79
2023/10/18 08:26:26;;;;;;;29.53;16.37;;;4.70;99.90;;;;;;5128680;27;20196;-80
2023/10/18 08:28:54;;;;;;;34.67;17.83;;;4.90;99.90;;;;;;5124515;27;20683;-80
2023/10/18 08:31:32;;;;;;;29.83;16.93;;;5.00;99.90;;;;;;5129035;27;20197;-79
2023/10/18 08:33:59;;;;;;;30.90;17.77;;;5.10;99.90;;;;;;5131814;27;20197;-79
2023/10/18 08:36:32;;;;;;;28.60;16.47;;;5.20;99.90;;;;;;5130289;27;20208;-79
2023/10/18 08:39:01;;;;;;;28.73;16.80;;;5.20;99.90;;;;;;5130369;27;20277;-79
2023/10/18 08:41:36;;;;;;;28.27;16.80;;;5.20;99.90;;;;;;5135069;27;20279;-78
2023/10/18 08:44:15;;;;;;;28.73;16.93;;;5.30;99.90;;;;;;5132460;27;20224;-79
2023/10/18 08:46:51;;;;;;;31.33;17.03;;;5.30;99.90;;;;;;5134217;27;20259;-78
2023/10/18 08:49:22;;;;;;;30.97;17.23;;;5.50;99.90;;;;;;5122114;27;20217;-78
2023/10/18 08:51:56;;;;;;;30.03;16.27;;;5.70;99.90;;;;;;5130091;27;20238;-80
2023/10/18 08:54:30;;;;;;;30.33;17.27;;;5.70;99.90;;;;;;5135513;27;20199;-79
2023/10/18 08:57:06;;;;;;;34.10;17.67;;;5.80;99.90;;;;;;5128005;27;20228;-79
2023/10/18 08:59:42;;;;;;;32.90;17.37;;;5.90;99.90;;;;;;5132240;27;20263;-79
2023/10/18 09:02:12;;;;;;;31.20;18.33;;;6.10;99.90;;;;;;5130828;27;20208;-80
2023/10/18 09:04:44;;;;;;;30.40;16.87;;;6.10;99.90;;;;;;5125352;27;20603;-78
2023/10/18 09:07:18;;;;;;;31.53;18.00;;;6.20;99.90;;;;;;5132695;27;20205;-79
2023/10/18 09:09:54;;;;;;;31.40;17.97;;;6.40;99.90;;;;;;5132348;27;20236;-79
2023/10/18 09:13:30;;;;;;;31.47;17.33;;;6.40;99.90;;;;;;5133136;27;20193;-79
2023/10/18 09:15:35;;;;;;;29.67;17.13;;;6.40;99.90;;;;;;5131319;27;20211;-80
2023/10/18 09:18:04;;;;;;;31.20;17.63;;;6.60;99.90;;;;;;5130961;27;20242;-78
2023/10/18 09:20:31;;;;;;;31.60;17.57;;;6.70;99.90;;;;;;5127293;27;20221;-80
2023/10/18 09:23:03;;;;;;;29.57;17.10;;;6.80;99.90;;;;;;5135700;27;20208;-78
2023/10/18 09:25:47;;;;;;;34.03;18.87;;;6.80;99.90;;;;;;5127670;27;20288;-80
2023/10/18 09:28:25;;;;;;;30.63;16.33;;;7.00;99.90;;;;;;5129424;27;20197;-79
2023/10/18 09:31:00;;;;;;;29.53;15.83;;;7.10;99.90;;;;;;5128987;27;20207;-79
2023/10/18 09:33:31;;;;;;;30.23;16.27;;;7.20;99.90;;;;;;5134288;27;20221;-79
2023/10/18 09:36:01;;;;;;;28.47;17.30;;;7.20;99.90;;;;;;5129799;27;20225;-79
2023/10/18 09:38:39;;;;;;;28.67;16.33;;;7.30;99.90;;;;;;5123646;27;20205;-79
2023/10/18 09:41:06;;;;;;;31.57;17.77;;;7.40;99.90;;;;;;5131049;27;20208;-79
2023/10/18 09:43:36;;;;;;;28.93;16.20;;;7.50;99.90;;;;;;5132596;27;20209;-79
2023/10/18 09:46:04;;;;;;;34.10;16.17;;;7.50;99.90;;;;;;5128598;27;20209;-77
2023/10/18 09:48:32;;;;;;;30.53;17.30;;;7.50;99.90;;;;;;5130176;27;20269;-76
2023/10/18 09:51:06;;;;;;;29.50;18.17;;;7.60;99.90;;;;;;5130011;27;20200;-77
2023/10/18 09:53:35;;;;;;;28.87;17.03;;;7.70;99.90;;;;;;5129678;27;20199;-76
2023/10/18 09:56:03;;;;;;;27.03;15.50;;;7.80;99.90;;;;;;5124580;27;20196;-77
2023/10/18 09:58:33;;;;;;;27.50;16.20;;;7.80;99.90;;;;;;5131672;27;20312;-78
2023/10/18 10:01:13;;;;;;;26.90;15.70;;;7.90;99.90;;;;;;5126078;27;20313;-77
2023/10/18 10:03:50;;;;;;;30.97;17.33;;;8.00;99.90;;;;;;5124804;27;20205;-77
2023/10/18 10:06:23;;;;;;;25.53;14.73;;;8.20;99.90;;;;;;5128249;27;20200;-77
2023/10/18 10:08:55;;;;;;;24.80;14.47;;;8.20;99.90;;;;;;5125191;27;20699;-78
2023/10/18 10:11:29;;;;;;;24.30;14.80;;;8.30;99.90;;;;;;5127896;27;20283;-76
2023/10/18 10:14:00;;;;;;;23.10;13.67;;;8.30;99.90;;;;;;5128357;27;20282;-77
2023/10/18 10:16:31;;;;;;;22.63;13.70;;;8.40;99.90;;;;;;5123209;27;20214;-78
2023/10/18 10:19:04;;;;;;;22.67;12.67;;;8.60;99.90;;;;;;5126651;27;20597;-76
2023/10/18 10:21:33;;;;;;;22.33;12.97;;;8.50;99.90;;;;;;5130872;27;20603;-77
2023/10/18 10:24:06;;;;;;;23.07;13.50;;;8.50;99.90;;;;;;5127024;27;20213;-77
2023/10/18 10:26:35;;;;;;;23.77;13.23;;;8.60;99.90;;;;;;5130157;27;20674;-77
2023/10/18 10:31:56;;;;;;;20.73;12.93;;;8.90;99.90;;;;;;5123659;27;20269;-78
2023/10/18 10:34:32;;;;;;;20.67;12.67;;;9.00;99.90;;;;;;5129790;27;20199;-77
2023/10/18 10:37:08;;;;;;;23.13;12.97;;;9.00;99.90;;;;;;5130603;27;20208;-78
2023/10/18 10:39:43;;;;;;;20.90;12.53;;;9.00;99.90;;;;;;5129571;27;20224;-77
2023/10/18 10:42:19;;;;;;;21.17;12.80;;;9.20;99.90;;;;;;5129097;27;20717;-76
2023/10/18 10:45:09;;;;;;;20.97;12.50;;;9.30;99.90;;;;;;5128209;27;20207;-77
2023/10/18 10:47:45;;;;;;;23.40;13.20;;;9.30;99.90;;;;;;5125662;27;20205;-78
2023/10/18 10:50:45;;;;;;;18.53;11.47;;;9.30;99.90;;;;;;5133455;27;20654;-77
2023/10/18 10:53:12;;;;;;;21.83;12.00;;;9.30;99.90;;;;;;5128082;27;20197;-78
2023/10/18 10:55:39;;;;;;;20.17;11.60;;;9.30;99.90;;;;;;5132077;27;20200;-79
2023/10/18 10:58:15;;;;;;;18.97;11.43;;;9.30;99.90;;;;;;5130483;28;20196;-78
2023/10/18 11:01:04;;;;;;;20.53;11.47;;;9.30;99.90;;;;;;5133972;28;20742;-78
2023/10/18 11:03:33;;;;;;;19.43;11.03;;;9.40;99.90;;;;;;5131559;28;20224;-79
2023/10/18 11:06:05;;;;;;;19.13;11.70;;;9.40;99.90;;;;;;5125265;28;20575;-79
2023/10/18 11:08:35;;;;;;;20.33;11.77;;;9.60;99.90;;;;;;5127366;28;20207;-77
2023/10/18 11:11:06;;;;;;;18.87;11.27;;;9.60;99.90;;;;;;5131354;28;20200;-78
2023/10/18 11:13:36;;;;;;;17.77;11.07;;;9.70;99.90;;;;;;5124391;28;20233;-77
2023/10/18 11:16:04;;;;;;;18.10;11.47;;;9.70;99.90;;;;;;5126068;28;20563;-78
2023/10/18 11:18:39;;;;;;;17.67;11.03;;;9.70;99.90;;;;;;5130733;28;20231;-76
2023/10/18 11:21:18;;;;;;;23.40;13.33;;;9.80;99.90;;;;;;5126013;28;20242;-77
2023/10/18 11:23:46;;;;;;;20.40;12.20;;;9.90;99.90;;;;;;5128310;28;20295;-77
2023/10/18 11:26:19;;;;;;;20.93;12.10;;;9.70;99.90;;;;;;5130344;28;20192;-78
2023/10/18 11:28:46;;;;;;;21.33;12.10;;;9.80;99.90;;;;;;5123896;27;20221;-78
2023/10/18 11:31:14;;;;;;;19.27;10.83;;;9.80;99.90;;;;;;5129913;27;20249;-78
2023/10/18 11:33:54;;;;;;;19.37;12.20;;;9.90;99.90;;;;;;5134297;27;20208;-78
2023/10/18 11:36:27;;;;;;;18.30;11.00;;;9.90;99.90;;;;;;5125005;27;20201;-77
2023/10/18 11:39:18;;;;;;;20.30;11.47;;;9.90;99.90;;;;;;5137753;27;20220;-78
2023/10/18 11:41:49;;;;;;;19.40;11.93;;;9.90;99.90;;;;;;5137309;27;20203;-78
2023/10/18 11:44:27;;;;;;;17.07;10.60;;;10.00;99.90;;;;;;5132187;27;20305;-77
2023/10/18 11:47:00;;;;;;;19.43;11.17;;;10.00;99.90;;;;;;5131779;27;20241;-78
2023/10/18 11:49:35;;;;;;;18.10;11.23;;;10.10;99.90;;;;;;5132782;27;20293;-78
2023/10/18 11:52:04;;;;;;;20.33;11.63;;;10.20;99.90;;;;;;5135186;27;20216;-79
2023/10/18 11:54:32;;;;;;;17.93;11.00;;;10.20;99.90;;;;;;5134552;27;20205;-78
2023/10/18 11:57:00;;;;;;;20.00;11.37;;;10.20;99.90;;;;;;5134457;27;20196;-78
2023/10/18 11:59:28;;;;;;;16.80;10.97;;;10.30;99.90;;;;;;5130869;27;20822;-77
2023/10/18 12:01:59;;;;;;;16.63;10.63;;;10.40;99.90;;;;;;5128508;27;20625;-77
2023/10/18 12:04:29;;;;;;;17.90;10.83;;;10.40;99.90;;;;;;5129122;27;20245;-78
2023/10/18 12:06:57;;;;;;;16.97;10.33;;;10.50;99.90;;;;;;5129633;27;20201;-76
2023/10/18 12:09:26;;;;;;;18.50;9.93;;;10.60;99.90;;;;;;5133881;27;20227;-77
2023/10/18 12:11:54;;;;;;;16.90;10.13;;;10.60;99.90;;;;;;5126061;27;20273;-77
2023/10/18 12:14:22;;;;;;;15.63;9.33;;;10.80;99.90;;;;;;5136639;27;20235;-78
2023/10/18 12:16:50;;;;;;;15.30;9.77;;;10.90;99.90;;;;;;5129040;27;20201;-79
2023/10/18 12:19:18;;;;;;;17.70;10.70;;;10.90;99.90;;;;;;5135338;27;20220;-78
2023/10/18 12:21:48;;;;;;;17.03;10.20;;;10.90;99.90;;;;;;5132050;27;20201;-78
2023/10/18 12:24:16;;;;;;;17.93;9.93;;;11.10;99.90;;;;;;5128998;27;20265;-78
2023/10/18 12:26:45;;;;;;;14.20;8.37;;;11.10;99.90;;;;;;5132802;27;20215;-77
2023/10/18 12:29:16;;;;;;;18.07;9.27;;;11.50;99.90;;;;;;5130075;27;20756;-78
2023/10/18 12:31:52;;;;;;;17.80;9.57;;;11.30;99.90;;;;;;5129695;27;20288;-77
2023/10/18 12:34:21;;;;;;;15.10;9.60;;;11.50;99.90;;;;;;5136810;27;20193;-78
2023/10/18 12:36:53;;;;;;;12.73;8.73;;;11.70;99.90;;;;;;5130835;27;20208;-77
2023/10/18 12:39:22;;;;;;;15.60;9.73;;;11.90;99.90;;;;;;5128488;27;20227;-78
2023/10/18 12:41:53;;;;;;;15.80;9.43;;;11.50;99.90;;;;;;5122340;27;20217;-78
2023/10/18 12:44:21;;;;;;;15.03;8.90;;;11.40;99.90;;;;;;5133367;27;20620;-78
2023/10/18 12:46:50;;;;;;;12.67;8.60;;;11.30;99.90;;;;;;5133462;27;20196;-77
2023/10/18 12:49:22;;;;;;;14.47;9.03;;;11.20;99.90;;;;;;5126998;27;20220;-78
2023/10/18 12:51:57;;;;;;;15.87;8.67;;;11.00;99.90;;;;;;5132046;27;20219;-78
2023/10/18 12:54:29;;;;;;;13.30;8.70;;;11.10;99.90;;;;;;5129733;27;20196;-77
2023/10/18 12:56:57;;;;;;;14.33;8.57;;;11.20;99.90;;;;;;5130949;27;20689;-77
2023/10/18 12:59:25;;;;;;;13.73;9.03;;;11.20;99.90;;;;;;5129478;27;20228;-76
2023/10/18 13:01:58;;;;;;;14.47;8.40;;;11.40;99.90;;;;;;5132780;27;20224;-78
2023/10/18 13:04:24;;;;;;;16.43;8.77;;;11.20;99.90;;;;;;5129624;27;20216;-78
2023/10/18 13:06:51;;;;;;;14.17;8.23;;;11.10;99.90;;;;;;5129899;27;20199;-77